Bokeelia, FL (33922)

4:26 AM EDT on March 29, 2015 (GMT -0400)
Calusa Ridge | | Change Station
CLOSE
Current Station
Personal Weather Station
Location: Bokeelia, FL
Elevation: 13 ft
Nearby Weather Stations

Elev 13 ft 26.64 °N, 82.13 °W | Updated 44 seconds ago

Clear
Clear
53.9 °F
Feels Like 53.9 °F
N
1.0
Wind Variable Wind from North
Gusts 3.0 mph

Today
High -- | Low -- °F
--% Chance of Precip.
Yesterday
High -- | Low -- °F
Precip. -- in
7:22 AM 7:44 PM
Waxing Gibbous, 69% visible
Pressure 30.23 in
Visibility 10.0 miles
Clouds Clear
Dew Point 50 °F
Humidity 86%
Rainfall 0.00 in
Snow Depth Not available.
UV 0 out of 12
Pollen 10.00 out of 12
Air Quality Not available.
Flu Activity Not available.
METAR KFMY 290753Z AUTO 01003KT 10SM CLR 13/07 A3022 RMK AO2 SLP236 T01330072

More Conditions Fewer Conditions

Pressure 30.23 in
Visibility 10.0 miles
Clouds Clear
Dew Point 50 °F
Humidity 86%
Rainfall 0.00 in
Snow Depth Not available.
UV 0 out of 12
Pollen 10.00 out of 12
Air Quality Not available.
Flu Activity Not available.
METAR KFMY 290753Z AUTO 01003KT 10SM CLR 13/07 A3022 RMK AO2 SLP236 T01330072

More Conditions Fewer Conditions

10-Day Weather Forecast

Almanac

Astronomy

Mar. 29, 2015 Rise Set
Actual Time
Civil Twilight
Nautical Twilight
Astronomical Twilight
Moon
Length of Visible Light
Length of Day
Tomorrow will be .
, % of the Moon is Illuminated

Today's Extremes

State Highs State Lows

Community

WunderPhotos

Upload Photos

1,809,187 photos uploaded!

WunderBlogs® & News

Nearby

Air Quality

  Air Quality AQ Index Pollutant
Not available.

Snow Depth

Station Depth Elevation

Earthquake Activity

City Distance Mag. Time & Date
Minimum magnitude displayed is 2.5.

Coastal Water Temperatures

Place Temperature

Stations

Nearby Weather Stations

Station Location Temp. Windchill Dew Point Humidity Wind Precip. Elev Updated Type